sensor_id;sensor_type;location;lat;lon;timestamp;P1;durP1;ratioP1;P2;durP2;ratioP2
64375;SDS011;50700;55.416;12.952;2023-03-23T00:00:46;24.90;;;11.82;;
64375;SDS011;50700;55.416;12.952;2023-03-23T00:03:12;27.30;;;11.98;;
64375;SDS011;50700;55.416;12.952;2023-03-23T00:05:39;25.77;;;11.73;;
64375;SDS011;50700;55.416;12.952;2023-03-23T00:08:16;27.20;;;12.70;;
64375;SDS011;50700;55.416;12.952;2023-03-23T00:10:42;28.08;;;12.35;;
64375;SDS011;50700;55.416;12.952;2023-03-23T00:13:09;25.30;;;12.25;;
64375;SDS011;50700;55.416;12.952;2023-03-23T00:15:36;27.67;;;12.75;;
64375;SDS011;50700;55.416;12.952;2023-03-23T00:18:06;25.10;;;11.93;;
64375;SDS011;50700;55.416;12.952;2023-03-23T00:20:32;21.58;;;10.38;;
64375;SDS011;50700;55.416;12.952;2023-03-23T00:23:07;28.17;;;11.13;;
64375;SDS011;50700;55.416;12.952;2023-03-23T00:25:33;23.92;;;10.95;;
64375;SDS011;50700;55.416;12.952;2023-03-23T00:27:59;20.42;;;10.95;;
64375;SDS011;50700;55.416;12.952;2023-03-23T00:30:25;20.88;;;9.55;;
64375;SDS011;50700;55.416;12.952;2023-03-23T00:32:51;21.17;;;10.10;;
64375;SDS011;50700;55.416;12.952;2023-03-23T00:35:18;25.08;;;10.40;;
64375;SDS011;50700;55.416;12.952;2023-03-23T00:37:45;17.83;;;9.38;;
64375;SDS011;50700;55.416;12.952;2023-03-23T00:40:11;20.67;;;9.50;;
64375;SDS011;50700;55.416;12.952;2023-03-23T00:42:37;20.25;;;8.70;;
64375;SDS011;50700;55.416;12.952;2023-03-23T00:45:04;21.30;;;8.68;;
64375;SDS011;50700;55.416;12.952;2023-03-23T00:47:37;21.70;;;8.93;;
64375;SDS011;50700;55.416;12.952;2023-03-23T00:50:05;22.73;;;9.18;;
64375;SDS011;50700;55.416;12.952;2023-03-23T00:52:32;17.15;;;9.00;;
64375;SDS011;50700;55.416;12.952;2023-03-23T00:54:58;17.42;;;8.68;;
64375;SDS011;50700;55.416;12.952;2023-03-23T00:57:24;15.85;;;8.05;;
64375;SDS011;50700;55.416;12.952;2023-03-23T00:59:51;20.52;;;8.65;;
64375;SDS011;50700;55.416;12.952;2023-03-23T01:02:17;17.45;;;8.57;;
64375;SDS011;50700;55.416;12.952;2023-03-23T01:04:44;18.90;;;9.02;;
64375;SDS011;50700;55.416;12.952;2023-03-23T01:07:11;20.77;;;8.98;;
64375;SDS011;50700;55.416;12.952;2023-03-23T01:09:43;18.63;;;9.38;;
64375;SDS011;50700;55.416;12.952;2023-03-23T01:12:10;16.85;;;8.40;;
64375;SDS011;50700;55.416;12.952;2023-03-23T01:14:36;18.35;;;8.77;;
64375;SDS011;50700;55.416;12.952;2023-03-23T01:17:02;18.17;;;9.07;;
64375;SDS011;50700;55.416;12.952;2023-03-23T01:19:29;18.27;;;8.85;;
64375;SDS011;50700;55.416;12.952;2023-03-23T01:21:55;17.67;;;9.50;;
64375;SDS011;50700;55.416;12.952;2023-03-23T01:24:21;21.67;;;9.23;;
64375;SDS011;50700;55.416;12.952;2023-03-23T01:26:47;23.17;;;9.50;;
64375;SDS011;50700;55.416;12.952;2023-03-23T01:29:13;21.38;;;9.07;;
64375;SDS011;50700;55.416;12.952;2023-03-23T01:31:40;22.40;;;9.52;;
64375;SDS011;50700;55.416;12.952;2023-03-23T01:34:08;21.65;;;9.10;;
64375;SDS011;50700;55.416;12.952;2023-03-23T01:36:35;21.52;;;10.35;;
64375;SDS011;50700;55.416;12.952;2023-03-23T01:39:03;23.35;;;9.82;;
64375;SDS011;50700;55.416;12.952;2023-03-23T01:41:30;22.67;;;9.45;;
64375;SDS011;50700;55.416;12.952;2023-03-23T01:44:06;21.35;;;9.02;;
64375;SDS011;50700;55.416;12.952;2023-03-23T01:46:34;22.33;;;9.95;;
64375;SDS011;50700;55.416;12.952;2023-03-23T01:51:57;23.00;;;10.38;;
64375;SDS011;50700;55.416;12.952;2023-03-23T01:54:25;28.05;;;10.45;;
64375;SDS011;50700;55.416;12.952;2023-03-23T01:56:54;27.33;;;11.52;;
64375;SDS011;50700;55.416;12.952;2023-03-23T01:59:21;27.10;;;11.32;;
64375;SDS011;50700;55.416;12.952;2023-03-23T02:01:48;27.98;;;11.52;;
64375;SDS011;50700;55.416;12.952;2023-03-23T02:04:17;24.80;;;11.30;;
64375;SDS011;50700;55.416;12.952;2023-03-23T02:06:44;25.63;;;11.80;;
64375;SDS011;50700;55.416;12.952;2023-03-23T02:09:11;25.08;;;11.70;;
64375;SDS011;50700;55.416;12.952;2023-03-23T02:11:39;32.60;;;11.60;;
64375;SDS011;50700;55.416;12.952;2023-03-23T02:14:05;21.70;;;10.57;;
64375;SDS011;50700;55.416;12.952;2023-03-23T02:16:44;26.92;;;11.80;;
64375;SDS011;50700;55.416;12.952;2023-03-23T02:35:33;22.75;;;10.70;;
64375;SDS011;50700;55.416;12.952;2023-03-23T02:38:01;24.40;;;10.57;;
64375;SDS011;50700;55.416;12.952;2023-03-23T02:40:33;24.75;;;10.75;;
64375;SDS011;50700;55.416;12.952;2023-03-23T02:43:01;23.33;;;11.25;;
64375;SDS011;50700;55.416;12.952;2023-03-23T02:45:29;28.23;;;11.05;;
64375;SDS011;50700;55.416;12.952;2023-03-23T02:47:56;22.65;;;9.85;;
64375;SDS011;50700;55.416;12.952;2023-03-23T02:50:23;21.65;;;9.73;;
64375;SDS011;50700;55.416;12.952;2023-03-23T02:52:51;27.00;;;10.30;;
64375;SDS011;50700;55.416;12.952;2023-03-23T02:55:18;26.67;;;10.35;;
64375;SDS011;50700;55.416;12.952;2023-03-23T02:57:46;23.85;;;10.98;;
64375;SDS011;50700;55.416;12.952;2023-03-23T03:00:13;25.45;;;11.07;;
64375;SDS011;50700;55.416;12.952;2023-03-23T03:02:40;23.70;;;11.43;;
64375;SDS011;50700;55.416;12.952;2023-03-23T03:07:42;23.40;;;11.00;;
64375;SDS011;50700;55.416;12.952;2023-03-23T03:10:22;29.67;;;12.25;;
64375;SDS011;50700;55.416;12.952;2023-03-23T03:13:03;23.70;;;11.60;;
64375;SDS011;50700;55.416;12.952;2023-03-23T03:15:40;25.63;;;11.52;;
64375;SDS011;50700;55.416;12.952;2023-03-23T03:18:12;23.95;;;10.77;;
64375;SDS011;50700;55.416;12.952;2023-03-23T03:20:54;23.60;;;10.90;;
64375;SDS011;50700;55.416;12.952;2023-03-23T03:23:22;21.05;;;10.55;;
64375;SDS011;50700;55.416;12.952;2023-03-23T03:25:48;25.88;;;11.25;;
64375;SDS011;50700;55.416;12.952;2023-03-23T03:28:17;24.88;;;10.98;;
64375;SDS011;50700;55.416;12.952;2023-03-23T03:30:51;24.17;;;10.60;;
64375;SDS011;50700;55.416;12.952;2023-03-23T03:33:19;27.85;;;11.88;;
64375;SDS011;50700;55.416;12.952;2023-03-23T03:35:45;29.75;;;12.70;;
64375;SDS011;50700;55.416;12.952;2023-03-23T03:38:12;23.92;;;11.00;;
64375;SDS011;50700;55.416;12.952;2023-03-23T03:40:38;25.08;;;11.02;;
64375;SDS011;50700;55.416;12.952;2023-03-23T03:43:05;32.92;;;13.32;;
64375;SDS011;50700;55.416;12.952;2023-03-23T03:45:32;35.47;;;13.65;;
64375;SDS011;50700;55.416;12.952;2023-03-23T03:47:58;28.60;;;13.65;;
64375;SDS011;50700;55.416;12.952;2023-03-23T03:50:27;31.13;;;13.75;;
64375;SDS011;50700;55.416;12.952;2023-03-23T03:52:53;28.55;;;13.63;;
64375;SDS011;50700;55.416;12.952;2023-03-23T03:55:19;32.08;;;13.88;;
64375;SDS011;50700;55.416;12.952;2023-03-23T03:57:46;35.80;;;15.07;;
64375;SDS011;50700;55.416;12.952;2023-03-23T04:00:13;27.00;;;12.55;;
64375;SDS011;50700;55.416;12.952;2023-03-23T04:02:43;32.17;;;14.07;;
64375;SDS011;50700;55.416;12.952;2023-03-23T04:05:12;32.65;;;13.63;;
64375;SDS011;50700;55.416;12.952;2023-03-23T04:07:38;32.97;;;12.75;;
64375;SDS011;50700;55.416;12.952;2023-03-23T04:10:06;28.65;;;12.63;;
64375;SDS011;50700;55.416;12.952;2023-03-23T04:12:33;30.83;;;13.55;;
64375;SDS011;50700;55.416;12.952;2023-03-23T04:15:00;30.23;;;14.05;;
64375;SDS011;50700;55.416;12.952;2023-03-23T04:17:26;29.77;;;13.52;;
64375;SDS011;50700;55.416;12.952;2023-03-23T04:19:53;29.60;;;13.43;;
64375;SDS011;50700;55.416;12.952;2023-03-23T04:22:22;27.08;;;12.85;;
64375;SDS011;50700;55.416;12.952;2023-03-23T04:24:56;28.73;;;13.75;;
64375;SDS011;50700;55.416;12.952;2023-03-23T04:27:24;27.33;;;12.90;;
64375;SDS011;50700;55.416;12.952;2023-03-23T04:29:54;33.75;;;12.95;;
64375;SDS011;50700;55.416;12.952;2023-03-23T04:32:20;27.77;;;13.13;;
64375;SDS011;50700;55.416;12.952;2023-03-23T04:34:46;26.23;;;12.15;;
64375;SDS011;50700;55.416;12.952;2023-03-23T04:37:13;32.45;;;13.23;;
64375;SDS011;50700;55.416;12.952;2023-03-23T04:39:40;32.20;;;13.68;;
64375;SDS011;50700;55.416;12.952;2023-03-23T04:42:06;32.00;;;13.20;;
64375;SDS011;50700;55.416;12.952;2023-03-23T04:44:34;28.40;;;13.40;;
64375;SDS011;50700;55.416;12.952;2023-03-23T04:47:01;29.13;;;12.77;;
64375;SDS011;50700;55.416;12.952;2023-03-23T04:49:27;30.52;;;13.73;;
64375;SDS011;50700;55.416;12.952;2023-03-23T04:51:55;31.05;;;12.88;;
64375;SDS011;50700;55.416;12.952;2023-03-23T04:54:21;27.23;;;12.68;;
64375;SDS011;50700;55.416;12.952;2023-03-23T04:56:48;26.25;;;12.57;;
64375;SDS011;50700;55.416;12.952;2023-03-23T04:59:14;33.97;;;12.63;;
64375;SDS011;50700;55.416;12.952;2023-03-23T05:01:40;33.17;;;12.40;;
64375;SDS011;50700;55.416;12.952;2023-03-23T05:04:10;31.27;;;12.07;;
64375;SDS011;50700;55.416;12.952;2023-03-23T05:06:41;25.50;;;13.27;;
64375;SDS011;50700;55.416;12.952;2023-03-23T05:09:10;28.42;;;12.50;;
64375;SDS011;50700;55.416;12.952;2023-03-23T05:11:37;29.27;;;13.43;;
64375;SDS011;50700;55.416;12.952;2023-03-23T05:14:03;25.45;;;11.45;;
64375;SDS011;50700;55.416;12.952;2023-03-23T05:16:30;31.85;;;13.20;;
64375;SDS011;50700;55.416;12.952;2023-03-23T05:18:56;24.08;;;11.43;;
64375;SDS011;50700;55.416;12.952;2023-03-23T05:21:23;25.85;;;12.57;;
64375;SDS011;50700;55.416;12.952;2023-03-23T05:23:49;23.75;;;11.18;;
64375;SDS011;50700;55.416;12.952;2023-03-23T05:26:23;23.40;;;11.38;;
64375;SDS011;50700;55.416;12.952;2023-03-23T05:28:50;22.63;;;11.63;;
64375;SDS011;50700;55.416;12.952;2023-03-23T05:31:18;21.67;;;10.52;;
64375;SDS011;50700;55.416;12.952;2023-03-23T05:33:44;19.38;;;10.90;;
64375;SDS011;50700;55.416;12.952;2023-03-23T05:36:11;21.10;;;10.60;;
64375;SDS011;50700;55.416;12.952;2023-03-23T05:38:39;21.38;;;10.50;;
64375;SDS011;50700;55.416;12.952;2023-03-23T05:41:10;19.67;;;10.07;;
64375;SDS011;50700;55.416;12.952;2023-03-23T05:43:37;22.42;;;9.32;;
64375;SDS011;50700;55.416;12.952;2023-03-23T05:46:03;22.08;;;10.57;;
64375;SDS011;50700;55.416;12.952;2023-03-23T05:48:29;21.10;;;9.00;;
64375;SDS011;50700;55.416;12.952;2023-03-23T05:50:56;22.02;;;9.32;;
64375;SDS011;50700;55.416;12.952;2023-03-23T05:53:22;16.58;;;8.27;;
64375;SDS011;50700;55.416;12.952;2023-03-23T05:55:49;16.17;;;8.60;;
64375;SDS011;50700;55.416;12.952;2023-03-23T05:58:15;18.80;;;8.50;;
64375;SDS011;50700;55.416;12.952;2023-03-23T06:00:41;22.35;;;10.10;;
64375;SDS011;50700;55.416;12.952;2023-03-23T06:03:07;20.02;;;9.18;;
64375;SDS011;50700;55.416;12.952;2023-03-23T06:05:34;18.25;;;8.43;;
64375;SDS011;50700;55.416;12.952;2023-03-23T06:08:01;19.48;;;8.95;;
64375;SDS011;50700;55.416;12.952;2023-03-23T06:10:27;21.67;;;9.45;;
64375;SDS011;50700;55.416;12.952;2023-03-23T06:12:55;22.80;;;10.23;;
64375;SDS011;50700;55.416;12.952;2023-03-23T06:15:21;25.42;;;9.73;;
64375;SDS011;50700;55.416;12.952;2023-03-23T06:17:47;22.63;;;9.50;;
64375;SDS011;50700;55.416;12.952;2023-03-23T06:20:15;21.35;;;9.23;;
64375;SDS011;50700;55.416;12.952;2023-03-23T06:22:41;19.70;;;9.07;;
64375;SDS011;50700;55.416;12.952;2023-03-23T06:25:08;16.15;;;8.77;;
64375;SDS011;50700;55.416;12.952;2023-03-23T06:27:36;20.77;;;8.90;;
64375;SDS011;50700;55.416;12.952;2023-03-23T06:30:03;17.05;;;8.15;;
64375;SDS011;50700;55.416;12.952;2023-03-23T06:32:30;18.38;;;7.30;;
64375;SDS011;50700;55.416;12.952;2023-03-23T06:34:57;17.42;;;8.45;;
64375;SDS011;50700;55.416;12.952;2023-03-23T06:37:23;16.92;;;7.32;;
64375;SDS011;50700;55.416;12.952;2023-03-23T06:39:50;16.45;;;6.70;;
64375;SDS011;50700;55.416;12.952;2023-03-23T06:42:17;11.73;;;5.88;;
64375;SDS011;50700;55.416;12.952;2023-03-23T06:44:43;11.77;;;5.13;;
64375;SDS011;50700;55.416;12.952;2023-03-23T06:47:10;13.35;;;5.53;;
64375;SDS011;50700;55.416;12.952;2023-03-23T06:49:36;11.93;;;4.95;;
64375;SDS011;50700;55.416;12.952;2023-03-23T06:52:02;12.68;;;6.05;;
64375;SDS011;50700;55.416;12.952;2023-03-23T06:54:29;17.60;;;6.95;;
64375;SDS011;50700;55.416;12.952;2023-03-23T06:56:55;13.73;;;6.00;;
64375;SDS011;50700;55.416;12.952;2023-03-23T06:59:21;17.88;;;6.20;;
64375;SDS011;50700;55.416;12.952;2023-03-23T07:01:47;15.48;;;6.88;;
64375;SDS011;50700;55.416;12.952;2023-03-23T07:04:14;16.98;;;6.97;;
64375;SDS011;50700;55.416;12.952;2023-03-23T07:06:41;12.85;;;6.57;;
64375;SDS011;50700;55.416;12.952;2023-03-23T07:09:07;13.70;;;6.70;;
64375;SDS011;50700;55.416;12.952;2023-03-23T07:11:33;16.65;;;7.00;;
64375;SDS011;50700;55.416;12.952;2023-03-23T07:14:00;12.70;;;5.93;;
64375;SDS011;50700;55.416;12.952;2023-03-23T07:16:26;17.13;;;6.90;;
64375;SDS011;50700;55.416;12.952;2023-03-23T07:18:52;15.30;;;6.75;;
64375;SDS011;50700;55.416;12.952;2023-03-23T07:21:18;11.40;;;6.07;;
64375;SDS011;50700;55.416;12.952;2023-03-23T07:23:45;13.82;;;6.15;;
64375;SDS011;50700;55.416;12.952;2023-03-23T07:26:12;10.13;;;5.35;;
64375;SDS011;50700;55.416;12.952;2023-03-23T07:28:41;12.18;;;5.35;;
64375;SDS011;50700;55.416;12.952;2023-03-23T07:31:07;19.02;;;5.80;;
64375;SDS011;50700;55.416;12.952;2023-03-23T07:33:37;11.18;;;5.97;;
64375;SDS011;50700;55.416;12.952;2023-03-23T07:36:04;11.40;;;6.07;;
64375;SDS011;50700;55.416;12.952;2023-03-23T07:38:31;12.63;;;5.80;;
64375;SDS011;50700;55.416;12.952;2023-03-23T07:40:57;11.30;;;5.13;;
64375;SDS011;50700;55.416;12.952;2023-03-23T07:43:24;9.38;;;4.95;;
64375;SDS011;50700;55.416;12.952;2023-03-23T07:45:51;8.30;;;4.57;;
64375;SDS011;50700;55.416;12.952;2023-03-23T07:48:17;9.73;;;4.55;;
64375;SDS011;50700;55.416;12.952;2023-03-23T07:50:43;9.52;;;4.78;;
64375;SDS011;50700;55.416;12.952;2023-03-23T07:53:10;7.35;;;4.15;;
64375;SDS011;50700;55.416;12.952;2023-03-23T07:55:36;8.65;;;4.75;;
64375;SDS011;50700;55.416;12.952;2023-03-23T07:58:02;10.15;;;4.30;;
64375;SDS011;50700;55.416;12.952;2023-03-23T08:00:29;9.00;;;3.55;;
64375;SDS011;50700;55.416;12.952;2023-03-23T08:02:56;7.45;;;3.70;;
64375;SDS011;50700;55.416;12.952;2023-03-23T08:05:24;7.18;;;3.58;;
64375;SDS011;50700;55.416;12.952;2023-03-23T08:07:51;7.38;;;3.10;;
64375;SDS011;50700;55.416;12.952;2023-03-23T08:10:20;5.03;;;3.50;;
64375;SDS011;50700;55.416;12.952;2023-03-23T08:12:52;6.05;;;3.40;;
64375;SDS011;50700;55.416;12.952;2023-03-23T08:15:20;6.15;;;3.58;;
64375;SDS011;50700;55.416;12.952;2023-03-23T08:17:47;6.07;;;3.28;;
64375;SDS011;50700;55.416;12.952;2023-03-23T08:20:13;6.00;;;3.10;;
64375;SDS011;50700;55.416;12.952;2023-03-23T08:22:40;7.53;;;3.10;;
64375;SDS011;50700;55.416;12.952;2023-03-23T08:25:09;5.80;;;2.80;;
64375;SDS011;50700;55.416;12.952;2023-03-23T08:27:36;6.55;;;3.35;;
64375;SDS011;50700;55.416;12.952;2023-03-23T08:30:03;5.03;;;3.08;;
64375;SDS011;50700;55.416;12.952;2023-03-23T08:32:31;7.20;;;3.55;;
64375;SDS011;50700;55.416;12.952;2023-03-23T08:34:57;6.45;;;3.42;;
64375;SDS011;50700;55.416;12.952;2023-03-23T08:37:24;6.35;;;2.75;;
64375;SDS011;50700;55.416;12.952;2023-03-23T08:39:51;4.95;;;3.28;;
64375;SDS011;50700;55.416;12.952;2023-03-23T08:42:18;8.45;;;3.75;;
64375;SDS011;50700;55.416;12.952;2023-03-23T08:44:44;6.93;;;3.85;;
64375;SDS011;50700;55.416;12.952;2023-03-23T08:47:10;5.70;;;2.90;;
64375;SDS011;50700;55.416;12.952;2023-03-23T08:49:37;6.78;;;2.97;;
64375;SDS011;50700;55.416;12.952;2023-03-23T08:52:03;10.20;;;3.60;;
64375;SDS011;50700;55.416;12.952;2023-03-23T08:54:29;5.63;;;3.78;;
64375;SDS011;50700;55.416;12.952;2023-03-23T08:56:59;7.35;;;4.10;;
64375;SDS011;50700;55.416;12.952;2023-03-23T08:59:25;7.35;;;3.28;;
64375;SDS011;50700;55.416;12.952;2023-03-23T09:01:52;6.65;;;3.20;;
64375;SDS011;50700;55.416;12.952;2023-03-23T09:04:18;4.70;;;2.97;;
64375;SDS011;50700;55.416;12.952;2023-03-23T09:06:44;5.53;;;3.15;;
64375;SDS011;50700;55.416;12.952;2023-03-23T09:09:11;4.43;;;2.40;;
64375;SDS011;50700;55.416;12.952;2023-03-23T09:11:37;7.88;;;2.88;;
64375;SDS011;50700;55.416;12.952;2023-03-23T09:14:05;5.25;;;3.00;;
64375;SDS011;50700;55.416;12.952;2023-03-23T09:16:32;7.05;;;2.78;;
64375;SDS011;50700;55.416;12.952;2023-03-23T09:18:59;6.05;;;2.58;;
64375;SDS011;50700;55.416;12.952;2023-03-23T09:21:26;5.32;;;3.28;;
64375;SDS011;50700;55.416;12.952;2023-03-23T09:23:53;8.40;;;3.83;;
64375;SDS011;50700;55.416;12.952;2023-03-23T09:26:24;7.55;;;3.35;;
64375;SDS011;50700;55.416;12.952;2023-03-23T09:28:50;10.82;;;3.33;;
64375;SDS011;50700;55.416;12.952;2023-03-23T09:31:17;9.18;;;3.28;;
64375;SDS011;50700;55.416;12.952;2023-03-23T09:33:47;6.78;;;3.05;;
64375;SDS011;50700;55.416;12.952;2023-03-23T09:36:17;7.32;;;2.95;;
64375;SDS011;50700;55.416;12.952;2023-03-23T09:38:46;8.27;;;2.60;;
64375;SDS011;50700;55.416;12.952;2023-03-23T09:41:21;6.13;;;2.50;;
64375;SDS011;50700;55.416;12.952;2023-03-23T09:52:00;4.22;;;2.65;;
64375;SDS011;50700;55.416;12.952;2023-03-23T09:54:36;6.93;;;2.95;;
64375;SDS011;50700;55.416;12.952;2023-03-23T09:57:03;5.90;;;2.55;;
64375;SDS011;50700;55.416;12.952;2023-03-23T10:02:04;4.45;;;2.10;;
64375;SDS011;50700;55.416;12.952;2023-03-23T10:07:09;4.82;;;2.10;;
64375;SDS011;50700;55.416;12.952;2023-03-23T10:09:36;8.48;;;2.20;;
64375;SDS011;50700;55.416;12.952;2023-03-23T10:12:48;8.75;;;2.00;;
64375;SDS011;50700;55.416;12.952;2023-03-23T10:17:31;8.35;;;2.08;;
64375;SDS011;50700;55.416;12.952;2023-03-23T10:22:32;6.82;;;2.60;;
64375;SDS011;50700;55.416;12.952;2023-03-23T10:27:40;7.00;;;3.70;;
64375;SDS011;50700;55.416;12.952;2023-03-23T10:30:27;8.98;;;3.58;;
64375;SDS011;50700;55.416;12.952;2023-03-23T10:32:55;7.05;;;3.60;;
64375;SDS011;50700;55.416;12.952;2023-03-23T10:35:25;8.45;;;4.25;;
64375;SDS011;50700;55.416;12.952;2023-03-23T10:37:53;10.95;;;4.70;;
64375;SDS011;50700;55.416;12.952;2023-03-23T10:40:23;12.23;;;5.75;;
64375;SDS011;50700;55.416;12.952;2023-03-23T10:42:51;12.48;;;5.90;;
64375;SDS011;50700;55.416;12.952;2023-03-23T10:45:21;13.25;;;7.03;;
64375;SDS011;50700;55.416;12.952;2023-03-23T10:47:49;11.57;;;6.78;;
64375;SDS011;50700;55.416;12.952;2023-03-23T10:50:21;12.35;;;6.85;;
64375;SDS011;50700;55.416;12.952;2023-03-23T10:52:48;15.88;;;7.43;;
64375;SDS011;50700;55.416;12.952;2023-03-23T10:55:18;14.90;;;7.60;;
64375;SDS011;50700;55.416;12.952;2023-03-23T11:00:26;13.77;;;7.40;;
64375;SDS011;50700;55.416;12.952;2023-03-23T11:03:01;17.55;;;8.13;;
64375;SDS011;50700;55.416;12.952;2023-03-23T11:08:16;10.80;;;7.47;;
64375;SDS011;50700;55.416;12.952;2023-03-23T11:10:51;12.18;;;7.25;;
64375;SDS011;50700;55.416;12.952;2023-03-23T11:13:18;13.07;;;8.00;;
64375;SDS011;50700;55.416;12.952;2023-03-23T11:15:45;10.13;;;7.47;;
64375;SDS011;50700;55.416;12.952;2023-03-23T11:18:17;11.85;;;7.53;;
64375;SDS011;50700;55.416;12.952;2023-03-23T11:20:44;13.00;;;7.90;;
64375;SDS011;50700;55.416;12.952;2023-03-23T11:28:34;11.63;;;7.35;;
64375;SDS011;50700;55.416;12.952;2023-03-23T11:31:03;13.80;;;7.28;;
64375;SDS011;50700;55.416;12.952;2023-03-23T11:36:12;12.88;;;7.18;;
64375;SDS011;50700;55.416;12.952;2023-03-23T11:38:40;16.00;;;7.20;;
64375;SDS011;50700;55.416;12.952;2023-03-23T11:41:10;14.95;;;7.40;;
64375;SDS011;50700;55.416;12.952;2023-03-23T11:43:40;13.85;;;7.18;;
64375;SDS011;50700;55.416;12.952;2023-03-23T11:48:57;10.05;;;6.18;;
64375;SDS011;50700;55.416;12.952;2023-03-23T11:51:27;11.00;;;5.32;;
64375;SDS011;50700;55.416;12.952;2023-03-23T11:54:01;8.30;;;6.30;;
64375;SDS011;50700;55.416;12.952;2023-03-23T11:56:38;12.30;;;5.88;;
64375;SDS011;50700;55.416;12.952;2023-03-23T11:59:47;13.95;;;5.65;;
64375;SDS011;50700;55.416;12.952;2023-03-23T12:07:29;8.35;;;4.30;;
64375;SDS011;50700;55.416;12.952;2023-03-23T12:12:56;13.55;;;3.47;;
64375;SDS011;50700;55.416;12.952;2023-03-23T12:15:41;10.40;;;2.88;;
64375;SDS011;50700;55.416;12.952;2023-03-23T12:20:51;10.00;;;2.30;;
64375;SDS011;50700;55.416;12.952;2023-03-23T12:23:24;7.03;;;2.35;;
64375;SDS011;50700;55.416;12.952;2023-03-23T12:28:32;4.38;;;1.80;;
64375;SDS011;50700;55.416;12.952;2023-03-23T12:33:33;14.60;;;2.60;;
64375;SDS011;50700;55.416;12.952;2023-03-23T12:38:41;7.07;;;1.65;;
64375;SDS011;50700;55.416;12.952;2023-03-23T12:41:11;11.93;;;2.53;;
64375;SDS011;50700;55.416;12.952;2023-03-23T12:43:51;9.95;;;2.10;;
64375;SDS011;50700;55.416;12.952;2023-03-23T12:48:55;10.75;;;2.60;;
64375;SDS011;50700;55.416;12.952;2023-03-23T12:51:26;10.90;;;2.08;;
64375;SDS011;50700;55.416;12.952;2023-03-23T12:54:01;9.65;;;2.00;;
64375;SDS011;50700;55.416;12.952;2023-03-23T12:56:48;9.85;;;2.70;;
64375;SDS011;50700;55.416;12.952;2023-03-23T12:59:35;8.30;;;2.33;;
64375;SDS011;50700;55.416;12.952;2023-03-23T13:07:02;6.18;;;2.03;;
64375;SDS011;50700;55.416;12.952;2023-03-23T13:09:46;6.00;;;1.80;;
64375;SDS011;50700;55.416;12.952;2023-03-23T13:12:14;5.03;;;1.80;;
64375;SDS011;50700;55.416;12.952;2023-03-23T13:17:26;12.32;;;2.03;;
64375;SDS011;50700;55.416;12.952;2023-03-23T13:20:30;9.73;;;2.80;;
64375;SDS011;50700;55.416;12.952;2023-03-23T13:23:20;8.90;;;3.45;;
64375;SDS011;50700;55.416;12.952;2023-03-23T13:28:23;9.90;;;1.90;;
64375;SDS011;50700;55.416;12.952;2023-03-23T13:33:23;12.15;;;2.50;;
64375;SDS011;50700;55.416;12.952;2023-03-23T13:35:50;9.55;;;2.00;;
64375;SDS011;50700;55.416;12.952;2023-03-23T13:38:21;14.55;;;2.85;;
64375;SDS011;50700;55.416;12.952;2023-03-23T13:40:50;8.45;;;1.95;;
64375;SDS011;50700;55.416;12.952;2023-03-23T13:43:27;9.63;;;2.33;;
64375;SDS011;50700;55.416;12.952;2023-03-23T13:45:53;16.10;;;2.75;;
64375;SDS011;50700;55.416;12.952;2023-03-23T13:48:22;12.10;;;2.35;;
64375;SDS011;50700;55.416;12.952;2023-03-23T13:53:22;14.90;;;3.25;;
64375;SDS011;50700;55.416;12.952;2023-03-23T13:55:50;10.65;;;1.70;;
64375;SDS011;50700;55.416;12.952;2023-03-23T13:58:43;10.43;;;2.45;;
64375;SDS011;50700;55.416;12.952;2023-03-23T14:03:37;11.35;;;2.35;;
64375;SDS011;50700;55.416;12.952;2023-03-23T14:06:06;8.25;;;2.42;;
64375;SDS011;50700;55.416;12.952;2023-03-23T14:10:59;8.40;;;2.13;;
64375;SDS011;50700;55.416;12.952;2023-03-23T14:13:40;11.20;;;2.55;;
64375;SDS011;50700;55.416;12.952;2023-03-23T14:16:17;15.13;;;2.85;;
64375;SDS011;50700;55.416;12.952;2023-03-23T14:18:48;8.23;;;2.13;;
64375;SDS011;50700;55.416;12.952;2023-03-23T14:21:17;14.05;;;2.17;;
64375;SDS011;50700;55.416;12.952;2023-03-23T14:23:43;8.80;;;2.33;;
64375;SDS011;50700;55.416;12.952;2023-03-23T14:26:15;9.70;;;2.30;;
64375;SDS011;50700;55.416;12.952;2023-03-23T14:28:43;15.02;;;3.50;;
64375;SDS011;50700;55.416;12.952;2023-03-23T14:31:19;8.07;;;1.90;;
64375;SDS011;50700;55.416;12.952;2023-03-23T14:33:47;10.60;;;2.38;;
64375;SDS011;50700;55.416;12.952;2023-03-23T14:36:14;12.60;;;3.05;;
64375;SDS011;50700;55.416;12.952;2023-03-23T14:38:40;10.68;;;2.58;;
64375;SDS011;50700;55.416;12.952;2023-03-23T14:41:10;10.00;;;2.65;;
64375;SDS011;50700;55.416;12.952;2023-03-23T14:43:37;11.88;;;2.35;;
64375;SDS011;50700;55.416;12.952;2023-03-23T14:46:05;8.93;;;1.77;;
64375;SDS011;50700;55.416;12.952;2023-03-23T14:48:32;5.60;;;1.90;;
64375;SDS011;50700;55.416;12.952;2023-03-23T14:51:00;8.75;;;1.75;;
64375;SDS011;50700;55.416;12.952;2023-03-23T14:53:35;10.55;;;1.90;;
64375;SDS011;50700;55.416;12.952;2023-03-23T14:56:03;8.38;;;2.60;;
64375;SDS011;50700;55.416;12.952;2023-03-23T14:58:30;7.63;;;1.70;;
64375;SDS011;50700;55.416;12.952;2023-03-23T15:01:01;6.95;;;1.73;;
64375;SDS011;50700;55.416;12.952;2023-03-23T15:03:30;7.90;;;1.77;;
64375;SDS011;50700;55.416;12.952;2023-03-23T15:05:59;10.60;;;1.95;;
64375;SDS011;50700;55.416;12.952;2023-03-23T15:08:31;10.05;;;2.08;;
64375;SDS011;50700;55.416;12.952;2023-03-23T15:11:05;6.18;;;1.60;;
64375;SDS011;50700;55.416;12.952;2023-03-23T15:13:33;12.95;;;3.08;;
64375;SDS011;50700;55.416;12.952;2023-03-23T15:16:01;10.23;;;2.63;;
64375;SDS011;50700;55.416;12.952;2023-03-23T15:18:32;7.88;;;1.83;;
64375;SDS011;50700;55.416;12.952;2023-03-23T15:21:07;8.38;;;1.73;;
64375;SDS011;50700;55.416;12.952;2023-03-23T15:23:34;15.45;;;2.53;;
64375;SDS011;50700;55.416;12.952;2023-03-23T15:26:06;11.27;;;1.93;;
64375;SDS011;50700;55.416;12.952;2023-03-23T15:28:33;8.02;;;2.20;;
64375;SDS011;50700;55.416;12.952;2023-03-23T15:31:03;6.95;;;1.83;;
64375;SDS011;50700;55.416;12.952;2023-03-23T15:33:33;7.28;;;1.88;;
64375;SDS011;50700;55.416;12.952;2023-03-23T15:36:04;8.45;;;1.75;;
64375;SDS011;50700;55.416;12.952;2023-03-23T15:38:31;8.82;;;1.75;;
64375;SDS011;50700;55.416;12.952;2023-03-23T15:41:00;11.27;;;1.80;;
64375;SDS011;50700;55.416;12.952;2023-03-23T15:43:27;10.02;;;3.15;;
64375;SDS011;50700;55.416;12.952;2023-03-23T15:46:04;16.70;;;2.05;;
64375;SDS011;50700;55.416;12.952;2023-03-23T15:48:32;10.90;;;2.17;;
64375;SDS011;50700;55.416;12.952;2023-03-23T15:50:59;9.55;;;1.83;;
64375;SDS011;50700;55.416;12.952;2023-03-23T15:53:27;7.95;;;1.83;;
64375;SDS011;50700;55.416;12.952;2023-03-23T15:55:54;6.22;;;2.17;;
64375;SDS011;50700;55.416;12.952;2023-03-23T15:58:20;9.70;;;1.50;;
64375;SDS011;50700;55.416;12.952;2023-03-23T16:00:47;7.88;;;1.50;;
64375;SDS011;50700;55.416;12.952;2023-03-23T16:03:19;11.90;;;2.17;;
64375;SDS011;50700;55.416;12.952;2023-03-23T16:05:46;10.40;;;2.17;;
64375;SDS011;50700;55.416;12.952;2023-03-23T16:08:12;5.85;;;1.77;;
64375;SDS011;50700;55.416;12.952;2023-03-23T16:10:41;8.15;;;1.65;;